createdAt,value
2022-09-24T00:01:39.918Z,7.20
2022-09-24T00:04:09.867Z,7.20
2022-09-24T00:06:44.561Z,7.20
2022-09-24T00:09:13.529Z,7.20
2022-09-24T00:11:40.936Z,7.20
2022-09-24T00:14:08.372Z,7.10
2022-09-24T00:16:36.241Z,7.10
2022-09-24T00:19:05.209Z,7.10
2022-09-24T00:21:34.628Z,7.00
2022-09-24T00:24:05.053Z,7.10
2022-09-24T00:26:50.321Z,7.00
2022-09-24T00:29:24.004Z,7.10
2022-09-24T00:31:53.735Z,7.10
2022-09-24T00:34:21.410Z,7.00
2022-09-24T00:36:48.659Z,6.90
2022-09-24T00:39:16.581Z,6.90
2022-09-24T00:41:48.125Z,6.90
2022-09-24T00:44:41.066Z,6.90
2022-09-24T00:47:31.451Z,6.80
2022-09-24T00:50:21.181Z,6.80
2022-09-24T00:52:57.921Z,6.90
2022-09-24T00:55:26.682Z,6.80
2022-09-24T00:57:59.098Z,6.80
2022-09-24T01:00:26.816Z,6.70
2022-09-24T01:03:07.947Z,6.80
2022-09-24T01:05:37.214Z,6.90
2022-09-24T01:08:06.701Z,6.80
2022-09-24T01:11:03.130Z,6.90
2022-09-24T01:13:30.155Z,6.90
2022-09-24T01:16:23.202Z,6.90
2022-09-24T01:19:02.470Z,7.00
2022-09-24T01:21:42.082Z,6.90
2022-09-24T01:24:19.298Z,6.90
2022-09-24T01:26:52.533Z,6.90
2022-09-24T01:29:32.558Z,7.00
2022-09-24T01:32:09.181Z,7.00
2022-09-24T01:34:48.012Z,7.10
2022-09-24T01:37:18.964Z,7.10
2022-09-24T01:39:47.607Z,7.10
2022-09-24T01:42:15.350Z,7.10
2022-09-24T01:44:44.623Z,7.10
2022-09-24T01:47:20.350Z,7.20
2022-09-24T01:49:47.450Z,7.20
2022-09-24T01:52:20.283Z,7.30
2022-09-24T01:54:52.382Z,7.30
2022-09-24T01:57:28.191Z,7.40
2022-09-24T02:00:05.823Z,7.30
2022-09-24T02:02:48.321Z,7.30
2022-09-24T02:05:41.527Z,7.40
2022-09-24T02:08:14.831Z,7.40
2022-09-24T02:11:02.281Z,7.30
2022-09-24T02:13:39.772Z,7.40
2022-09-24T02:16:10.887Z,7.40
2022-09-24T02:18:42.300Z,7.40
2022-09-24T02:21:17.107Z,7.50
2022-09-24T02:24:15.272Z,7.50
2022-09-24T02:26:43.062Z,7.40
2022-09-24T02:29:10.360Z,7.40
2022-09-24T02:31:48.100Z,7.40
2022-09-24T02:34:22.710Z,7.40
2022-09-24T02:36:51.780Z,7.50
2022-09-24T02:39:19.666Z,7.50
2022-09-24T02:41:49.458Z,7.60
2022-09-24T02:44:17.401Z,7.60
2022-09-24T02:46:45.694Z,7.60
2022-09-24T02:49:14.615Z,7.60
2022-09-24T02:51:42.755Z,7.70
2022-09-24T02:54:11.027Z,7.70
2022-09-24T02:56:38.316Z,7.80
2022-09-24T02:59:05.752Z,7.80
2022-09-24T03:01:34.457Z,7.80
2022-09-24T03:04:02.015Z,7.80
2022-09-24T03:06:30.024Z,7.80
2022-09-24T03:08:57.190Z,7.80
2022-09-24T03:11:24.933Z,7.90
2022-09-24T03:13:53.455Z,7.80
2022-09-24T03:16:21.544Z,7.90
2022-09-24T03:18:48.998Z,7.90
2022-09-24T03:21:19.080Z,7.90
2022-09-24T03:23:46.887Z,7.90
2022-09-24T03:26:14.743Z,7.90
2022-09-24T03:28:41.910Z,7.90
2022-09-24T03:31:09.342Z,7.90
2022-09-24T03:33:39.396Z,7.80
2022-09-24T03:36:10.157Z,7.90
2022-09-24T03:38:39.022Z,8.00
2022-09-24T03:41:07.051Z,7.90
2022-09-24T03:43:34.750Z,7.90
2022-09-24T03:46:02.388Z,8.00
2022-09-24T03:48:30.397Z,7.90
2022-09-24T03:50:57.648Z,7.90
2022-09-24T03:53:24.728Z,7.80
2022-09-24T03:55:56.975Z,7.80
2022-09-24T03:58:24.784Z,7.80
2022-09-24T04:00:55.309Z,7.80
2022-09-24T04:03:23.113Z,7.70
2022-09-24T04:05:53.382Z,7.80
2022-09-24T04:08:22.016Z,7.80
2022-09-24T04:10:50.458Z,7.80
2022-09-24T04:13:19.041Z,7.80
2022-09-24T04:15:46.244Z,7.70
2022-09-24T04:18:13.355Z,7.70
2022-09-24T04:20:41.723Z,7.80
2022-09-24T04:23:10.659Z,7.80
2022-09-24T04:25:37.824Z,7.80
2022-09-24T04:28:06.991Z,7.80
2022-09-24T04:30:35.653Z,7.80
2022-09-24T04:33:03.196Z,7.80
2022-09-24T04:35:32.497Z,7.80
2022-09-24T04:38:00.512Z,7.80
2022-09-24T04:40:28.383Z,7.80
2022-09-24T04:42:55.567Z,7.80
2022-09-24T04:45:25.121Z,7.80
2022-09-24T04:47:57.422Z,7.80
2022-09-24T04:50:29.379Z,7.80
2022-09-24T04:52:56.916Z,7.80
2022-09-24T04:55:24.435Z,7.80
2022-09-24T04:57:51.624Z,7.80
2022-09-24T05:00:21.246Z,7.70
2022-09-24T05:02:55.870Z,7.80
2022-09-24T05:05:23.429Z,7.80
2022-09-24T05:07:51.369Z,7.80
2022-09-24T05:10:18.721Z,7.80
2022-09-24T05:12:45.767Z,7.90
2022-09-24T05:15:12.798Z,7.90
2022-09-24T05:17:40.774Z,7.90
2022-09-24T05:20:10.666Z,7.90
2022-09-24T05:22:45.529Z,8.00
2022-09-24T05:25:14.038Z,8.00
2022-09-24T05:27:49.433Z,8.00
2022-09-24T05:30:17.723Z,8.00
2022-09-24T05:32:44.804Z,8.00
2022-09-24T05:35:12.788Z,8.10
2022-09-24T05:37:40.657Z,8.10
2022-09-24T05:40:27.249Z,8.10
2022-09-24T05:43:03.493Z,8.10
2022-09-24T05:45:31.385Z,8.20
2022-09-24T05:48:01.956Z,8.20
2022-09-24T05:50:29.170Z,8.10
2022-09-24T05:52:56.425Z,8.20
2022-09-24T05:55:23.500Z,8.20
2022-09-24T05:57:50.542Z,8.20
2022-09-24T06:00:17.624Z,8.20
2022-09-24T06:02:44.807Z,8.30
2022-09-24T06:05:12.349Z,8.30
2022-09-24T06:07:39.772Z,8.40
2022-09-24T06:10:10.551Z,8.50
2022-09-24T06:12:37.719Z,8.50
2022-09-24T06:15:05.293Z,8.60
2022-09-24T06:17:32.633Z,8.60
2022-09-24T06:19:59.705Z,8.70
2022-09-24T06:22:29.026Z,8.80
2022-09-24T06:24:56.767Z,8.80
2022-09-24T06:27:24.006Z,8.90
2022-09-24T06:29:51.089Z,8.90
2022-09-24T06:32:19.846Z,9.00
2022-09-24T06:34:47.710Z,9.00
2022-09-24T06:37:14.767Z,9.10
2022-09-24T06:39:42.006Z,9.10
2022-09-24T06:42:09.426Z,9.20
2022-09-24T06:44:36.446Z,9.20
2022-09-24T06:47:03.618Z,9.30
2022-09-24T06:49:34.132Z,9.30
2022-09-24T06:52:02.167Z,9.40
2022-09-24T06:54:29.225Z,9.40
2022-09-24T06:56:56.303Z,9.50
2022-09-24T06:59:23.393Z,9.50
2022-09-24T07:01:50.627Z,9.60
2022-09-24T07:04:17.876Z,9.70
2022-09-24T07:07:03.594Z,9.70
2022-09-24T07:09:30.880Z,9.80
2022-09-24T07:11:59.085Z,9.80
2022-09-24T07:14:26.155Z,9.90
2022-09-24T07:16:54.133Z,9.90
2022-09-24T07:19:21.360Z,10.00
2022-09-24T07:21:48.700Z,10.00
2022-09-24T07:24:15.829Z,10.10
2022-09-24T07:26:42.858Z,10.10
2022-09-24T07:29:10.179Z,10.20
2022-09-24T07:31:37.557Z,10.30
2022-09-24T07:34:10.417Z,10.30
2022-09-24T07:36:37.630Z,10.30
2022-09-24T07:39:05.366Z,10.40
2022-09-24T07:41:37.397Z,10.40
2022-09-24T07:44:08.234Z,10.40
2022-09-24T07:46:35.994Z,10.50
2022-09-24T07:49:03.377Z,10.60
2022-09-24T07:51:30.526Z,10.60
2022-09-24T07:53:58.430Z,10.70
2022-09-24T07:56:26.270Z,10.70
2022-09-24T07:58:54.064Z,10.80
2022-09-24T08:01:21.244Z,10.80
2022-09-24T08:03:48.594Z,10.90
2022-09-24T08:06:15.916Z,10.90
2022-09-24T08:08:43.692Z,11.00
2022-09-24T08:11:13.549Z,11.00
2022-09-24T08:13:40.855Z,11.10
2022-09-24T08:16:08.042Z,11.10
2022-09-24T08:18:35.239Z,11.20
2022-09-24T08:21:07.604Z,11.30
2022-09-24T08:23:35.126Z,11.40
2022-09-24T08:26:02.749Z,11.40
2022-09-24T08:28:29.950Z,11.50
2022-09-24T08:31:01.803Z,11.50
2022-09-24T08:33:29.805Z,11.60
2022-09-24T08:36:00.126Z,11.60
2022-09-24T08:38:27.440Z,11.70
2022-09-24T08:41:12.685Z,11.80
2022-09-24T08:44:08.399Z,11.90
2022-09-24T08:47:13.922Z,11.90
2022-09-24T08:49:55.039Z,11.90
2022-09-24T08:52:51.229Z,12.00
2022-09-24T08:55:56.526Z,12.00
2022-09-24T08:58:26.170Z,12.10
2022-09-24T09:01:03.913Z,12.10
2022-09-24T09:03:40.357Z,12.10
2022-09-24T09:06:28.686Z,12.20
2022-09-24T09:10:02.319Z,12.30
2022-09-24T09:12:43.774Z,12.30
2022-09-24T09:15:13.884Z,12.40
2022-09-24T09:17:52.602Z,12.50
2022-09-24T09:20:24.948Z,12.50
2022-09-24T09:22:53.632Z,12.50
2022-09-24T09:25:25.037Z,12.50
2022-09-24T09:28:16.869Z,12.60
2022-09-24T09:31:13.352Z,12.60
2022-09-24T09:34:00.943Z,12.60
2022-09-24T09:36:45.320Z,12.60
2022-09-24T09:39:31.605Z,12.70
2022-09-24T09:42:24.848Z,12.70
2022-09-24T09:44:52.791Z,12.70
2022-09-24T09:47:19.770Z,12.70
2022-09-24T09:49:50.987Z,12.80
2022-09-24T09:52:28.919Z,12.80
2022-09-24T09:54:56.187Z,12.80
2022-09-24T09:57:25.338Z,12.90
2022-09-24T09:59:56.139Z,12.90
2022-09-24T10:02:33.961Z,12.90
2022-09-24T10:05:06.541Z,13.00
2022-09-24T10:07:45.329Z,13.00
2022-09-24T10:10:24.215Z,13.00
2022-09-24T10:13:07.250Z,13.10
2022-09-24T10:15:34.778Z,13.10
2022-09-24T10:18:02.915Z,13.20
2022-09-24T10:20:33.501Z,13.20
2022-09-24T10:23:07.061Z,13.20
2022-09-24T10:25:37.449Z,13.30
2022-09-24T10:28:41.269Z,13.40
2022-09-24T10:31:19.484Z,13.60
2022-09-24T10:33:49.461Z,13.70
2022-09-24T10:36:22.846Z,13.70
2022-09-24T10:39:01.110Z,13.60
2022-09-24T10:41:30.213Z,13.80
2022-09-24T10:44:02.933Z,13.80
2022-09-24T10:46:41.307Z,13.80
2022-09-24T10:49:11.149Z,13.90
2022-09-24T10:52:24.867Z,13.90
2022-09-24T10:55:17.058Z,13.90
2022-09-24T10:57:58.831Z,14.00
2022-09-24T11:01:01.255Z,14.10
2022-09-24T11:03:49.013Z,14.10
2022-09-24T11:06:30.835Z,14.10
2022-09-24T11:09:09.968Z,14.10
2022-09-24T11:11:49.018Z,14.00
2022-09-24T11:14:35.931Z,14.00
2022-09-24T11:17:05.797Z,14.00
2022-09-24T11:19:50.406Z,14.00
2022-09-24T11:22:40.292Z,14.00
2022-09-24T11:25:46.051Z,14.10
2022-09-24T11:28:24.688Z,14.20
2022-09-24T11:31:18.745Z,14.30
2022-09-24T11:34:23.547Z,14.30
2022-09-24T11:37:27.805Z,14.30
2022-09-24T11:40:10.534Z,14.40
2022-09-24T11:43:06.984Z,14.50
2022-09-24T11:45:56.242Z,14.60
2022-09-24T11:48:50.666Z,14.70
2022-09-24T11:51:45.675Z,14.60
2022-09-24T11:54:33.339Z,14.70
2022-09-24T11:57:13.372Z,14.70
2022-09-24T12:00:08.233Z,14.70
2022-09-24T12:02:41.781Z,14.70
2022-09-24T12:05:29.384Z,14.70
2022-09-24T12:08:04.870Z,14.60
2022-09-24T12:10:51.326Z,14.60
2022-09-24T12:13:42.443Z,14.60
2022-09-24T12:16:16.736Z,14.50
2022-09-24T12:19:02.269Z,14.60
2022-09-24T12:21:36.858Z,14.70
2022-09-24T12:24:11.387Z,14.70
2022-09-24T12:26:40.830Z,14.70
2022-09-24T12:29:44.196Z,14.60
2022-09-24T12:32:56.079Z,14.60
2022-09-24T12:35:36.891Z,14.60
2022-09-24T12:38:10.672Z,14.70
2022-09-24T12:40:54.768Z,14.70
2022-09-24T12:43:44.178Z,14.90
2022-09-24T12:46:24.396Z,14.90
2022-09-24T12:48:54.416Z,14.70
2022-09-24T12:51:25.383Z,14.60
2022-09-24T12:54:05.857Z,14.50
2022-09-24T12:56:34.322Z,14.50
2022-09-24T12:59:02.634Z,14.40
2022-09-24T13:01:34.725Z,14.30
2022-09-24T13:04:14.256Z,14.20
2022-09-24T13:06:43.968Z,14.20
2022-09-24T13:09:34.689Z,14.20
2022-09-24T13:12:16.037Z,14.20
2022-09-24T13:15:01.735Z,14.30
2022-09-24T13:17:33.535Z,14.40
2022-09-24T13:20:06.744Z,14.40
2022-09-24T13:22:36.118Z,14.50
2022-09-24T13:25:09.272Z,14.60
2022-09-24T13:27:41.400Z,14.70
2022-09-24T13:30:26.511Z,14.90
2022-09-24T13:33:03.400Z,15.00
2022-09-24T13:36:18.240Z,15.00
2022-09-24T13:39:16.910Z,15.00
2022-09-24T13:42:17.663Z,15.00
2022-09-24T13:44:53.168Z,15.20
2022-09-24T13:47:28.668Z,15.40
2022-09-24T13:50:14.435Z,15.50
2022-09-24T13:52:50.502Z,15.50
2022-09-24T13:55:32.449Z,15.60
2022-09-24T13:57:59.874Z,15.60
2022-09-24T14:00:29.310Z,15.60
2022-09-24T14:02:59.820Z,15.50
2022-09-24T14:05:29.190Z,15.50
2022-09-24T14:08:04.722Z,15.60
2022-09-24T14:10:32.675Z,15.60
2022-09-24T14:13:10.498Z,15.40
2022-09-24T14:15:38.637Z,15.30
2022-09-24T14:18:09.298Z,15.20
2022-09-24T14:20:40.123Z,15.00
2022-09-24T14:23:09.901Z,15.00
2022-09-24T14:25:39.954Z,14.90
2022-09-24T14:28:07.176Z,14.80
2022-09-24T14:30:39.170Z,14.80
2022-09-24T14:33:15.036Z,14.80
2022-09-24T14:35:48.449Z,14.70
2022-09-24T14:38:26.324Z,14.70
2022-09-24T14:40:59.867Z,14.60
2022-09-24T14:43:31.915Z,14.50
2022-09-24T14:46:07.599Z,14.50
2022-09-24T14:48:36.076Z,14.40
2022-09-24T14:51:03.675Z,14.40
2022-09-24T14:53:36.331Z,14.40
2022-09-24T14:56:29.400Z,14.40
2022-09-24T14:58:56.880Z,14.40
2022-09-24T15:01:30.659Z,14.50
2022-09-24T15:04:02.636Z,14.50
2022-09-24T15:06:32.786Z,14.50
2022-09-24T15:09:04.913Z,14.50
2022-09-24T15:11:35.475Z,14.50
2022-09-24T15:14:27.719Z,14.60
2022-09-24T15:16:57.031Z,14.60
2022-09-24T15:19:28.819Z,14.60
2022-09-24T15:21:57.747Z,14.60
2022-09-24T15:24:25.632Z,14.60
2022-09-24T15:27:06.914Z,14.60
2022-09-24T15:29:34.048Z,14.50
2022-09-24T15:32:02.463Z,14.50
2022-09-24T15:34:29.698Z,14.50
2022-09-24T15:37:02.066Z,14.40
2022-09-24T15:39:30.161Z,14.40
2022-09-24T15:41:57.252Z,14.30
2022-09-24T15:44:31.250Z,14.30
2022-09-24T15:46:58.474Z,14.20
2022-09-24T15:49:26.626Z,14.30
2022-09-24T15:52:02.137Z,14.20
2022-09-24T15:54:29.187Z,14.10
2022-09-24T15:56:56.281Z,14.10
2022-09-24T15:59:23.700Z,14.00
2022-09-24T16:01:54.547Z,14.00
2022-09-24T16:04:21.758Z,13.90
2022-09-24T16:06:50.108Z,13.80
2022-09-24T16:09:17.271Z,13.70
2022-09-24T16:11:44.544Z,13.70
2022-09-24T16:14:11.674Z,13.60
2022-09-24T16:16:41.796Z,13.50
2022-09-24T16:19:09.487Z,13.50
2022-09-24T16:21:36.645Z,13.50
2022-09-24T16:24:04.190Z,13.40
2022-09-24T16:26:32.144Z,13.40
2022-09-24T16:28:59.188Z,13.40
2022-09-24T16:31:26.385Z,13.40
2022-09-24T16:33:54.249Z,13.30
2022-09-24T16:36:24.127Z,13.30
2022-09-24T16:38:51.282Z,13.30
2022-09-24T16:41:18.362Z,13.20
2022-09-24T16:43:45.436Z,13.10
2022-09-24T16:46:17.802Z,13.00
2022-09-24T16:48:49.590Z,13.00
2022-09-24T16:51:17.475Z,13.00
2022-09-24T16:53:48.726Z,12.90
2022-09-24T16:56:17.571Z,12.90
2022-09-24T16:58:46.933Z,12.80
2022-09-24T17:01:16.215Z,12.80
2022-09-24T17:03:43.719Z,12.70
2022-09-24T17:06:19.496Z,12.70
2022-09-24T17:09:05.331Z,12.60
2022-09-24T17:11:32.415Z,12.60
2022-09-24T17:14:00.468Z,12.50
2022-09-24T17:16:27.786Z,12.40
2022-09-24T17:18:55.518Z,12.40
2022-09-24T17:21:23.550Z,12.30
2022-09-24T17:23:51.008Z,12.30
2022-09-24T17:26:20.490Z,12.20
2022-09-24T17:28:50.906Z,12.20
2022-09-24T17:31:23.343Z,12.10
2022-09-24T17:34:04.822Z,12.00
2022-09-24T17:36:34.305Z,11.90
2022-09-24T17:39:02.143Z,11.90
2022-09-24T17:41:30.443Z,11.90
2022-09-24T17:44:01.234Z,11.90
2022-09-24T17:46:32.729Z,11.90
2022-09-24T17:49:00.735Z,11.90
2022-09-24T17:51:33.551Z,11.80
2022-09-24T17:54:03.302Z,11.80
2022-09-24T17:56:34.494Z,11.80
2022-09-24T17:59:01.944Z,11.80
2022-09-24T18:01:33.776Z,11.70
2022-09-24T18:04:01.229Z,11.60
2022-09-24T18:06:32.957Z,11.50
2022-09-24T18:09:01.600Z,11.50
2022-09-24T18:11:34.310Z,11.50
2022-09-24T18:14:02.806Z,11.50
2022-09-24T18:16:32.162Z,11.40
2022-09-24T18:19:01.291Z,11.40
2022-09-24T18:21:29.524Z,11.30
2022-09-24T18:23:58.546Z,11.30
2022-09-24T18:26:35.210Z,11.20
2022-09-24T18:29:10.360Z,11.10
2022-09-24T18:31:38.204Z,11.10
2022-09-24T18:34:06.912Z,11.10
2022-09-24T18:36:38.985Z,11.00
2022-09-24T18:39:08.455Z,11.00
2022-09-24T18:41:37.185Z,11.00
2022-09-24T18:44:04.768Z,10.80
2022-09-24T18:46:33.547Z,10.80
2022-09-24T18:49:01.086Z,10.70
2022-09-24T18:51:31.324Z,10.70
2022-09-24T18:54:07.046Z,10.60
2022-09-24T18:56:34.883Z,10.60
2022-09-24T18:59:10.019Z,10.60
2022-09-24T19:01:38.172Z,10.60
2022-09-24T19:04:11.087Z,10.60
2022-09-24T19:06:40.786Z,10.50
2022-09-24T19:09:09.197Z,10.50
2022-09-24T19:11:37.330Z,10.50
2022-09-24T19:14:04.709Z,10.50
2022-09-24T19:16:33.176Z,10.40
2022-09-24T19:19:01.473Z,10.40
2022-09-24T19:21:30.352Z,10.40
2022-09-24T19:23:58.717Z,10.40
2022-09-24T19:26:31.890Z,10.30
2022-09-24T19:28:59.753Z,10.30
2022-09-24T19:31:38.254Z,10.20
2022-09-24T19:34:07.891Z,10.20
2022-09-24T19:36:45.696Z,10.20
2022-09-24T19:39:15.640Z,10.20
2022-09-24T19:41:43.509Z,10.20
2022-09-24T19:44:11.704Z,10.10
2022-09-24T19:46:39.550Z,10.10
2022-09-24T19:49:07.743Z,10.10
2022-09-24T19:51:35.878Z,10.10
2022-09-24T19:54:09.278Z,10.00
2022-09-24T19:56:37.418Z,10.10
2022-09-24T19:59:05.509Z,9.90
2022-09-24T20:01:34.109Z,9.90
2022-09-24T20:04:05.030Z,9.30
2022-09-24T20:06:33.989Z,9.90
2022-09-24T20:09:01.571Z,9.90
2022-09-24T20:11:32.346Z,9.90
2022-09-24T20:14:00.438Z,9.80
2022-09-24T20:16:31.366Z,9.80
2022-09-24T20:19:01.842Z,9.70
2022-09-24T20:21:32.595Z,9.70
2022-09-24T20:24:01.424Z,9.70
2022-09-24T20:26:46.917Z,9.60
2022-09-24T20:29:15.563Z,9.50
2022-09-24T20:31:56.721Z,9.50
2022-09-24T20:34:31.788Z,9.60
2022-09-24T20:37:02.792Z,9.50
2022-09-24T20:39:30.947Z,9.50
2022-09-24T20:42:06.369Z,9.60
2022-09-24T20:44:33.931Z,9.50
2022-09-24T20:47:01.080Z,9.50
2022-09-24T20:49:30.078Z,9.30
2022-09-24T20:51:58.084Z,9.20
2022-09-24T20:54:26.980Z,9.30
2022-09-24T20:56:54.300Z,9.20
2022-09-24T20:59:21.377Z,9.20
2022-09-24T21:01:49.701Z,9.20
2022-09-24T21:04:17.773Z,9.20
2022-09-24T21:06:44.835Z,9.20
2022-09-24T21:09:12.282Z,9.20
2022-09-24T21:11:39.443Z,9.20
2022-09-24T21:14:11.090Z,9.20
2022-09-24T21:16:38.481Z,9.20
2022-09-24T21:19:08.054Z,9.10
2022-09-24T21:21:39.085Z,9.10
2022-09-24T21:24:08.570Z,9.00
2022-09-24T21:26:37.669Z,9.00
2022-09-24T21:29:07.791Z,9.00
2022-09-24T21:31:36.144Z,9.00
2022-09-24T21:34:04.206Z,9.00
2022-09-24T21:36:32.950Z,9.00
2022-09-24T21:39:02.219Z,8.90
2022-09-24T21:41:34.811Z,9.00
2022-09-24T21:44:03.341Z,8.90
2022-09-24T21:46:33.787Z,8.90
2022-09-24T21:49:02.022Z,8.90
2022-09-24T21:51:30.324Z,8.90
2022-09-24T21:54:04.850Z,8.90
2022-09-24T21:56:34.086Z,8.90
2022-09-24T21:59:01.673Z,8.90
2022-09-24T22:01:31.420Z,8.80
2022-09-24T22:04:00.788Z,8.90
2022-09-24T22:06:29.704Z,8.80
2022-09-24T22:08:58.892Z,8.80
2022-09-24T22:11:26.496Z,8.80
2022-09-24T22:13:54.423Z,8.80
2022-09-24T22:16:21.991Z,8.70
2022-09-24T22:18:49.095Z,8.80
2022-09-24T22:21:16.207Z,8.80
2022-09-24T22:23:43.303Z,8.70
2022-09-24T22:26:11.413Z,8.80
2022-09-24T22:28:38.496Z,8.70
2022-09-24T22:31:11.963Z,8.80
2022-09-24T22:33:58.550Z,8.80
2022-09-24T22:36:28.006Z,8.80
2022-09-24T22:38:59.538Z,8.80
2022-09-24T22:41:29.169Z,8.70
2022-09-24T22:43:57.412Z,8.70
2022-09-24T22:46:27.422Z,8.70
2022-09-24T22:48:56.096Z,8.60
2022-09-24T22:51:25.253Z,8.60
2022-09-24T22:53:53.279Z,8.60
2022-09-24T22:56:22.504Z,8.50
2022-09-24T22:59:00.532Z,8.60
2022-09-24T23:01:39.488Z,8.50
2022-09-24T23:04:06.708Z,8.40
2022-09-24T23:06:34.814Z,8.40
2022-09-24T23:09:02.334Z,8.30
2022-09-24T23:11:35.090Z,8.30
2022-09-24T23:14:16.131Z,8.30
2022-09-24T23:16:44.140Z,8.30
2022-09-24T23:19:17.155Z,8.40
2022-09-24T23:21:44.981Z,8.40
2022-09-24T23:24:19.027Z,8.30
2022-09-24T23:26:46.725Z,8.30
2022-09-24T23:29:14.829Z,8.30
2022-09-24T23:31:42.102Z,8.30
2022-09-24T23:34:11.904Z,8.20
2022-09-24T23:36:39.247Z,8.10
2022-09-24T23:39:06.373Z,8.10
2022-09-24T23:41:33.635Z,8.20
2022-09-24T23:44:01.112Z,8.20
2022-09-24T23:46:28.609Z,8.20
2022-09-24T23:48:56.491Z,8.20
2022-09-24T23:51:23.571Z,8.10
2022-09-24T23:53:50.714Z,8.00
2022-09-24T23:56:18.693Z,8.00
2022-09-24T23:58:46.159Z,8.00
